createdAt,value
2023-04-28T00:01:08.315Z,8.51
2023-04-28T00:03:37.521Z,8.50
2023-04-28T00:06:07.369Z,8.47
2023-04-28T00:08:36.750Z,8.43
2023-04-28T00:11:10.918Z,8.43
2023-04-28T00:13:40.430Z,8.44
2023-04-28T00:16:09.263Z,8.44
2023-04-28T00:18:38.630Z,8.43
2023-04-28T00:21:08.462Z,8.43
2023-04-28T00:23:37.164Z,8.41
2023-04-28T00:26:06.316Z,8.41
2023-04-28T00:28:35.587Z,8.41
2023-04-28T00:31:13.573Z,8.41
2023-04-28T00:33:42.494Z,8.38
2023-04-28T00:36:12.138Z,8.37
2023-04-28T00:38:41.440Z,8.37
2023-04-28T00:41:12.833Z,8.36
2023-04-28T00:43:47.199Z,8.35
2023-04-28T00:46:23.043Z,8.34
2023-04-28T00:48:52.783Z,8.34
2023-04-28T00:51:23.459Z,8.33
2023-04-28T00:53:53.928Z,8.31
2023-04-28T00:56:22.744Z,8.31
2023-04-28T00:58:52.168Z,8.32
2023-04-28T01:01:22.217Z,8.32
2023-04-28T01:03:51.561Z,8.29
2023-04-28T01:06:22.119Z,8.28
2023-04-28T01:08:51.507Z,8.30
2023-04-28T01:11:20.726Z,8.28
2023-04-28T01:14:08.537Z,8.27
2023-04-28T01:16:39.999Z,8.27
2023-04-28T01:19:09.178Z,8.25
2023-04-28T01:21:39.810Z,8.22
2023-04-28T01:24:20.097Z,8.23
2023-04-28T01:26:48.915Z,8.21
2023-04-28T01:29:17.472Z,8.20
2023-04-28T01:31:47.638Z,8.18
2023-04-28T01:34:17.805Z,8.18
2023-04-28T01:36:47.399Z,8.16
2023-04-28T01:39:17.722Z,8.13
2023-04-28T01:41:47.527Z,8.12
2023-04-28T01:44:16.853Z,8.10
2023-04-28T01:46:46.071Z,8.08
2023-04-28T01:49:15.806Z,8.10
2023-04-28T01:51:44.851Z,8.10
2023-04-28T01:54:14.747Z,8.09
2023-04-28T01:56:44.878Z,8.08
2023-04-28T01:59:17.177Z,8.07
2023-04-28T02:01:46.804Z,8.06
2023-04-28T02:04:16.975Z,8.02
2023-04-28T02:06:46.916Z,7.98
2023-04-28T02:09:16.240Z,7.97
2023-04-28T02:11:45.944Z,7.96
2023-04-28T02:14:14.705Z,7.95
2023-04-28T02:16:44.607Z,7.93
2023-04-28T02:19:14.057Z,7.90
2023-04-28T02:21:43.381Z,7.88
2023-04-28T02:24:12.403Z,7.86
2023-04-28T02:26:41.192Z,7.83
2023-04-28T02:29:10.357Z,7.82
2023-04-28T02:31:39.445Z,7.81
2023-04-28T02:34:08.451Z,7.79
2023-04-28T02:36:38.032Z,7.77
2023-04-28T02:39:06.827Z,7.75
2023-04-28T02:41:36.455Z,7.75
2023-04-28T02:44:05.528Z,7.72
2023-04-28T02:46:34.872Z,7.70
2023-04-28T02:49:04.261Z,7.68
2023-04-28T02:51:34.541Z,7.65
2023-04-28T02:54:05.611Z,7.63
2023-04-28T02:56:37.062Z,7.63
2023-04-28T02:59:07.789Z,7.63
2023-04-28T03:01:37.773Z,7.62
2023-04-28T03:04:08.162Z,7.60
2023-04-28T03:06:37.517Z,7.59
2023-04-28T03:09:06.589Z,7.58
2023-04-28T03:11:35.772Z,7.58
2023-04-28T03:14:05.403Z,7.58
2023-04-28T03:16:34.594Z,7.56
2023-04-28T03:19:03.769Z,7.57
2023-04-28T03:21:33.876Z,7.55
2023-04-28T03:24:05.426Z,7.55
2023-04-28T03:26:34.345Z,7.55
2023-04-28T03:29:03.834Z,7.56
2023-04-28T03:31:33.490Z,7.55
2023-04-28T03:34:04.341Z,7.56
2023-04-28T03:36:32.906Z,7.56
2023-04-28T03:39:03.975Z,7.56
2023-04-28T03:41:33.607Z,7.55
2023-04-28T03:44:23.366Z,7.55
2023-04-28T03:46:54.148Z,7.55
2023-04-28T03:49:22.987Z,7.52
2023-04-28T03:51:52.184Z,7.50
2023-04-28T03:54:22.005Z,7.48
2023-04-28T03:56:51.407Z,7.46
2023-04-28T03:59:20.525Z,7.45
2023-04-28T04:01:52.466Z,7.41
2023-04-28T04:04:22.160Z,7.39
2023-04-28T04:06:55.375Z,7.39
2023-04-28T04:09:26.755Z,7.40
2023-04-28T04:11:55.828Z,7.38
2023-04-28T04:14:24.702Z,7.37
2023-04-28T04:16:55.246Z,7.36
2023-04-28T04:19:26.077Z,7.31
2023-04-28T04:21:58.138Z,7.32
2023-04-28T04:24:28.067Z,7.31
2023-04-28T04:26:57.491Z,7.33
2023-04-28T04:29:35.835Z,7.42
2023-04-28T04:32:07.390Z,7.41
2023-04-28T04:34:37.308Z,7.43
2023-04-28T04:37:06.956Z,7.44
2023-04-28T04:39:37.751Z,7.48
2023-04-28T04:42:22.636Z,7.51
2023-04-28T04:44:46.571Z,7.54
2023-04-28T04:47:23.852Z,7.60
2023-04-28T04:49:53.320Z,7.63
2023-04-28T04:52:22.679Z,7.64
2023-04-28T04:54:53.153Z,7.69
2023-04-28T04:57:22.827Z,7.74
2023-04-28T05:00:08.025Z,7.78
2023-04-28T05:02:37.498Z,7.83
2023-04-28T05:05:20.316Z,7.88
2023-04-28T05:07:41.739Z,7.94
2023-04-28T05:10:13.149Z,8.02
2023-04-28T05:12:46.147Z,8.09
2023-04-28T05:15:15.958Z,8.16
2023-04-28T05:17:47.847Z,8.20
2023-04-28T05:20:18.262Z,8.29
2023-04-28T05:22:48.220Z,8.34
2023-04-28T05:25:17.750Z,8.37
2023-04-28T05:27:47.200Z,8.39
2023-04-28T05:30:16.239Z,8.41
2023-04-28T05:32:47.084Z,8.41
2023-04-28T05:35:18.221Z,8.44
2023-04-28T05:37:49.345Z,8.43
2023-04-28T05:40:18.594Z,8.42
2023-04-28T05:42:49.146Z,8.43
2023-04-28T05:45:19.575Z,8.42
2023-04-28T05:47:50.223Z,8.44
2023-04-28T05:50:19.794Z,8.47
2023-04-28T05:52:48.621Z,8.53
2023-04-28T05:55:19.631Z,8.57
2023-04-28T05:57:53.147Z,8.63
2023-04-28T06:00:22.010Z,8.69
2023-04-28T06:02:53.054Z,8.72
2023-04-28T06:05:22.990Z,8.78
2023-04-28T06:07:55.883Z,8.87
2023-04-28T06:10:26.548Z,8.97
2023-04-28T06:12:56.217Z,9.06
2023-04-28T06:15:25.365Z,9.16
2023-04-28T06:17:54.799Z,9.27
2023-04-28T06:20:24.172Z,9.36
2023-04-28T06:22:53.600Z,9.48
2023-04-28T06:25:23.720Z,9.57
2023-04-28T06:27:54.648Z,9.73
2023-04-28T06:30:24.577Z,10.06
2023-04-28T06:32:54.305Z,10.48
2023-04-28T06:35:24.543Z,10.94
2023-04-28T06:37:54.816Z,11.37
2023-04-28T06:40:24.271Z,11.78
2023-04-28T06:42:57.546Z,12.15
2023-04-28T06:45:30.056Z,12.52
2023-04-28T06:48:00.103Z,12.86
2023-04-28T06:50:30.614Z,13.19
2023-04-28T06:52:59.845Z,13.42
2023-04-28T06:55:31.691Z,13.60
2023-04-28T06:58:01.435Z,13.80
2023-04-28T07:00:30.986Z,14.07
2023-04-28T07:03:00.877Z,14.23
2023-04-28T07:05:31.843Z,14.50
2023-04-28T07:08:02.556Z,14.75
2023-04-28T07:10:31.506Z,14.93
2023-04-28T07:13:00.677Z,15.18
2023-04-28T07:15:31.804Z,15.39
2023-04-28T07:18:00.977Z,15.52
2023-04-28T07:20:31.360Z,15.59
2023-04-28T07:23:05.310Z,15.64
2023-04-28T07:25:35.061Z,15.71
2023-04-28T07:28:04.258Z,15.87
2023-04-28T07:30:34.255Z,16.00
2023-04-28T07:33:04.139Z,16.04
2023-04-28T07:35:34.006Z,16.04
2023-04-28T07:38:04.490Z,16.11
2023-04-28T07:40:35.144Z,16.13
2023-04-28T07:43:03.965Z,16.17
2023-04-28T07:45:33.291Z,16.18
2023-04-28T07:48:03.282Z,16.10
2023-04-28T07:50:34.066Z,16.11
2023-04-28T07:53:05.068Z,16.12
2023-04-28T07:55:34.460Z,16.32
2023-04-28T07:58:04.166Z,16.49
2023-04-28T08:00:34.066Z,16.52
2023-04-28T08:03:04.470Z,16.59
2023-04-28T08:05:33.537Z,16.61
2023-04-28T08:08:02.832Z,16.65
2023-04-28T08:10:33.063Z,16.71
2023-04-28T08:13:02.805Z,16.63
2023-04-28T08:15:31.599Z,16.59
2023-04-28T08:18:00.405Z,16.62
2023-04-28T08:20:30.466Z,16.75
2023-04-28T08:22:59.255Z,16.87
2023-04-28T08:25:27.865Z,17.08
2023-04-28T08:27:57.609Z,17.36
2023-04-28T08:30:26.474Z,17.57
2023-04-28T08:32:55.739Z,17.71
2023-04-28T08:35:24.380Z,17.79
2023-04-28T08:37:53.502Z,17.88
2023-04-28T08:40:25.075Z,18.01
2023-04-28T08:42:54.635Z,18.18
2023-04-28T08:45:27.204Z,18.33
2023-04-28T08:47:56.213Z,18.44
2023-04-28T08:50:25.033Z,18.48
2023-04-28T08:52:53.856Z,18.36
2023-04-28T08:55:23.221Z,18.10
2023-04-28T08:57:52.402Z,17.99
2023-04-28T09:00:21.298Z,17.86
2023-04-28T09:02:51.242Z,17.78
2023-04-28T09:05:21.013Z,17.50
2023-04-28T09:07:51.904Z,17.23
2023-04-28T09:10:23.698Z,17.10
2023-04-28T09:12:54.899Z,17.06
2023-04-28T09:15:36.565Z,16.99
2023-04-28T09:18:09.129Z,16.77
2023-04-28T09:20:38.569Z,16.56
2023-04-28T09:23:22.150Z,16.37
2023-04-28T09:26:03.182Z,16.11
2023-04-28T09:28:35.585Z,15.91
2023-04-28T09:31:05.124Z,15.77
2023-04-28T09:33:34.929Z,15.65
2023-04-28T09:36:06.220Z,15.59
2023-04-28T09:38:39.703Z,15.51
2023-04-28T09:41:09.311Z,15.38
2023-04-28T09:43:38.267Z,15.19
2023-04-28T09:46:06.726Z,15.03
2023-04-28T09:48:39.521Z,14.93
2023-04-28T09:51:11.563Z,14.89
2023-04-28T09:53:40.831Z,14.90
2023-04-28T09:56:09.491Z,14.90
2023-04-28T09:58:40.171Z,14.87
2023-04-28T10:01:10.449Z,14.87
2023-04-28T10:03:41.230Z,14.87
2023-04-28T10:06:10.448Z,14.87
2023-04-28T10:08:39.992Z,14.82
2023-04-28T10:11:09.757Z,14.68
2023-04-28T10:13:39.077Z,14.63
2023-04-28T10:16:08.699Z,14.63
2023-04-28T10:18:38.091Z,14.69
2023-04-28T10:21:07.757Z,14.73
2023-04-28T10:24:17.609Z,14.75
2023-04-28T10:27:00.913Z,14.73
2023-04-28T10:29:29.933Z,14.65
2023-04-28T10:32:18.753Z,14.49
2023-04-28T10:34:48.259Z,14.45
2023-04-28T10:37:18.961Z,14.41
2023-04-28T10:40:31.987Z,14.39
2023-04-28T10:43:00.927Z,14.34
2023-04-28T10:46:01.472Z,14.17
2023-04-28T10:48:51.750Z,14.15
2023-04-28T10:51:25.508Z,14.21
2023-04-28T10:54:02.831Z,14.23
2023-04-28T10:56:35.219Z,14.15
2023-04-28T10:59:27.983Z,14.02
2023-04-28T11:02:01.300Z,13.92
2023-04-28T11:04:30.347Z,13.84
2023-04-28T11:07:14.003Z,13.89
2023-04-28T11:09:49.598Z,13.98
2023-04-28T11:12:19.324Z,14.01
2023-04-28T11:14:48.236Z,13.99
2023-04-28T11:17:19.127Z,13.95
2023-04-28T11:19:51.036Z,14.01
2023-04-28T11:22:23.129Z,14.07
2023-04-28T11:25:03.693Z,14.05
2023-04-28T11:27:38.831Z,14.00
2023-04-28T11:30:25.678Z,13.99
2023-04-28T11:33:00.020Z,14.00
2023-04-28T11:35:34.314Z,14.02
2023-04-28T11:38:06.345Z,14.00
2023-04-28T11:40:35.827Z,13.94
2023-04-28T11:43:06.365Z,13.87
2023-04-28T11:45:35.086Z,13.90
2023-04-28T11:48:22.582Z,13.99
2023-04-28T11:50:51.811Z,14.13
2023-04-28T11:53:24.444Z,14.22
2023-04-28T11:56:00.585Z,14.33
2023-04-28T11:58:30.116Z,14.38
2023-04-28T12:01:15.499Z,14.42
2023-04-28T12:03:48.073Z,14.44
2023-04-28T12:06:20.940Z,14.42
2023-04-28T12:08:52.468Z,14.40
2023-04-28T12:11:22.702Z,14.35
2023-04-28T12:14:06.445Z,14.33
2023-04-28T12:16:42.914Z,14.26
2023-04-28T12:19:12.451Z,14.21
2023-04-28T12:21:41.617Z,14.21
2023-04-28T12:24:21.276Z,14.18
2023-04-28T12:26:50.891Z,14.20
2023-04-28T12:29:41.561Z,14.24
2023-04-28T12:32:11.398Z,14.26
2023-04-28T12:34:41.804Z,14.31
2023-04-28T12:37:12.533Z,14.31
2023-04-28T12:39:43.122Z,14.22
2023-04-28T12:42:12.412Z,14.15
2023-04-28T12:44:42.499Z,14.11
2023-04-28T12:47:12.193Z,14.02
2023-04-28T12:49:41.653Z,13.90
2023-04-28T12:52:10.413Z,13.80
2023-04-28T12:54:41.737Z,13.75
2023-04-28T12:57:12.927Z,13.71
2023-04-28T12:59:46.572Z,13.67
2023-04-28T13:02:25.603Z,13.59
2023-04-28T13:04:55.917Z,13.52
2023-04-28T13:07:25.725Z,13.47
2023-04-28T13:09:56.414Z,13.47
2023-04-28T13:12:25.602Z,13.46
2023-04-28T13:14:54.743Z,13.47
2023-04-28T13:17:23.694Z,13.51
2023-04-28T13:19:52.234Z,13.50
2023-04-28T13:22:21.719Z,13.48
2023-04-28T13:24:50.616Z,13.44
2023-04-28T13:27:19.699Z,13.43
2023-04-28T13:29:48.939Z,13.43
2023-04-28T13:32:18.506Z,13.45
2023-04-28T13:34:47.596Z,13.46
2023-04-28T13:37:16.587Z,13.47
2023-04-28T13:39:45.382Z,13.50
2023-04-28T13:42:15.932Z,13.57
2023-04-28T13:44:46.689Z,13.62
2023-04-28T13:47:16.047Z,13.64
2023-04-28T13:49:44.573Z,13.67
2023-04-28T13:52:13.880Z,13.63
2023-04-28T13:54:42.840Z,13.59
2023-04-28T13:57:13.263Z,13.51
2023-04-28T13:59:42.280Z,13.47
2023-04-28T14:02:11.703Z,13.46
2023-04-28T14:04:40.631Z,13.44
2023-04-28T14:07:10.291Z,13.44
2023-04-28T14:09:43.047Z,13.46
2023-04-28T14:12:13.408Z,13.46
2023-04-28T14:14:42.442Z,13.46
2023-04-28T14:17:12.433Z,13.45
2023-04-28T14:19:41.973Z,13.38
2023-04-28T14:22:11.656Z,13.36
2023-04-28T14:24:42.699Z,13.32
2023-04-28T14:27:12.426Z,13.34
2023-04-28T14:29:43.565Z,13.35
2023-04-28T14:32:16.379Z,13.32
2023-04-28T14:34:46.252Z,13.35
2023-04-28T14:37:16.307Z,13.37
2023-04-28T14:39:45.316Z,13.41
2023-04-28T14:42:14.025Z,13.45
2023-04-28T14:44:42.730Z,13.45
2023-04-28T14:47:11.488Z,13.44
2023-04-28T14:49:40.631Z,13.48
2023-04-28T14:52:10.491Z,13.51
2023-04-28T14:54:39.523Z,13.51
2023-04-28T14:57:08.504Z,13.50
2023-04-28T14:59:39.095Z,13.51
2023-04-28T15:02:25.853Z,13.53
2023-04-28T15:04:57.917Z,13.59
2023-04-28T15:07:29.109Z,13.68
2023-04-28T15:09:59.645Z,13.75
2023-04-28T15:12:30.801Z,13.78
2023-04-28T15:14:59.557Z,13.78
2023-04-28T15:17:28.633Z,13.76
2023-04-28T15:19:57.568Z,13.73
2023-04-28T15:22:27.148Z,13.64
2023-04-28T15:24:56.089Z,13.54
2023-04-28T15:27:25.101Z,13.50
2023-04-28T15:29:53.864Z,13.45
2023-04-28T15:32:24.765Z,13.42
2023-04-28T15:34:53.621Z,13.37
2023-04-28T15:37:42.265Z,13.30
2023-04-28T15:40:13.490Z,13.25
2023-04-28T15:42:44.410Z,13.21
2023-04-28T15:45:13.510Z,13.20
2023-04-28T15:47:43.861Z,13.22
2023-04-28T15:50:13.070Z,13.22
2023-04-28T15:52:44.096Z,13.23
2023-04-28T15:55:21.178Z,13.23
2023-04-28T15:57:49.465Z,13.19
2023-04-28T16:00:18.117Z,13.22
2023-04-28T16:02:47.451Z,13.21
2023-04-28T16:05:16.806Z,13.21
2023-04-28T16:07:47.878Z,13.18
2023-04-28T16:10:17.614Z,13.14
2023-04-28T16:12:47.692Z,13.06
2023-04-28T16:15:17.230Z,13.02
2023-04-28T16:17:46.313Z,12.98
2023-04-28T16:20:15.192Z,12.95
2023-04-28T16:22:44.117Z,12.95
2023-04-28T16:25:13.709Z,12.91
2023-04-28T16:27:42.911Z,12.88
2023-04-28T16:30:12.131Z,12.86
2023-04-28T16:32:41.704Z,12.83
2023-04-28T16:35:14.521Z,12.83
2023-04-28T16:37:44.716Z,12.81
2023-04-28T16:40:15.237Z,12.79
2023-04-28T16:42:45.382Z,12.75
2023-04-28T16:45:14.631Z,12.68
2023-04-28T16:47:44.749Z,12.61
2023-04-28T16:50:14.905Z,12.57
2023-04-28T16:52:43.871Z,12.52
2023-04-28T16:55:12.858Z,12.46
2023-04-28T16:57:42.069Z,12.39
2023-04-28T17:00:13.546Z,12.35
2023-04-28T17:02:44.296Z,12.30
2023-04-28T17:05:13.796Z,12.27
2023-04-28T17:07:43.822Z,12.22
2023-04-28T17:10:13.583Z,12.17
2023-04-28T17:12:44.471Z,12.11
2023-04-28T17:15:19.523Z,12.05
2023-04-28T17:17:52.815Z,12.02
2023-04-28T17:20:22.055Z,11.99
2023-04-28T17:22:52.798Z,11.96
2023-04-28T17:25:24.205Z,11.91
2023-04-28T17:27:54.306Z,11.87
2023-04-28T17:30:25.390Z,11.84
2023-04-28T17:32:55.810Z,11.80
2023-04-28T17:35:25.644Z,11.75
2023-04-28T17:37:55.620Z,11.71
2023-04-28T17:40:25.658Z,11.68
2023-04-28T17:42:57.962Z,11.62
2023-04-28T17:45:26.773Z,11.59
2023-04-28T17:48:00.568Z,11.58
2023-04-28T17:50:30.294Z,11.53
2023-04-28T17:52:59.186Z,11.48
2023-04-28T17:55:32.362Z,11.46
2023-04-28T17:58:01.417Z,11.41
2023-04-28T18:00:30.859Z,11.38
2023-04-28T18:03:01.067Z,11.37
2023-04-28T18:05:31.150Z,11.34
2023-04-28T18:08:03.422Z,11.31
2023-04-28T18:10:32.818Z,11.27
2023-04-28T18:13:02.909Z,11.22
2023-04-28T18:15:32.447Z,11.19
2023-04-28T18:18:01.539Z,11.16
2023-04-28T18:20:30.935Z,11.13
2023-04-28T18:23:00.153Z,11.10
2023-04-28T18:25:31.187Z,11.08
2023-04-28T18:28:00.352Z,11.07
2023-04-28T18:30:38.560Z,11.04
2023-04-28T18:33:08.369Z,11.00
2023-04-28T18:35:41.690Z,10.97
2023-04-28T18:38:12.073Z,10.92
2023-04-28T18:40:40.929Z,10.90
2023-04-28T18:43:13.175Z,10.89
2023-04-28T18:45:43.380Z,10.86
2023-04-28T18:48:13.476Z,10.84
2023-04-28T18:50:43.332Z,10.81
2023-04-28T18:53:12.648Z,10.81
2023-04-28T18:55:42.224Z,10.79
2023-04-28T18:58:11.716Z,10.76
2023-04-28T19:00:41.901Z,10.71
2023-04-28T19:03:11.679Z,10.68
2023-04-28T19:05:43.280Z,10.65
2023-04-28T19:08:12.723Z,10.65
2023-04-28T19:10:41.492Z,10.63
2023-04-28T19:13:10.787Z,10.63
2023-04-28T19:15:40.342Z,10.60
2023-04-28T19:18:09.150Z,10.58
2023-04-28T19:20:38.103Z,10.56
2023-04-28T19:23:06.941Z,10.55
2023-04-28T19:25:37.367Z,10.53
2023-04-28T19:28:09.911Z,10.48
2023-04-28T19:30:39.146Z,10.46
2023-04-28T19:33:08.204Z,10.41
2023-04-28T19:35:38.177Z,10.38
2023-04-28T19:38:08.689Z,10.37
2023-04-28T19:40:38.974Z,10.35
2023-04-28T19:43:07.996Z,10.34
2023-04-28T19:45:38.613Z,10.32
2023-04-28T19:48:08.056Z,10.27
2023-04-28T19:50:38.043Z,10.26
2023-04-28T19:53:08.426Z,10.23
2023-04-28T19:55:37.322Z,10.21
2023-04-28T19:58:06.636Z,10.17
2023-04-28T20:00:36.638Z,10.13
2023-04-28T20:03:07.858Z,10.10
2023-04-28T20:05:39.952Z,10.06
2023-04-28T20:08:09.317Z,10.04
2023-04-28T20:10:39.971Z,10.01
2023-04-28T20:13:09.176Z,9.99
2023-04-28T20:15:38.175Z,9.98
2023-04-28T20:18:08.258Z,9.96
2023-04-28T20:20:37.403Z,9.95
2023-04-28T20:23:06.628Z,9.92
2023-04-28T20:25:37.363Z,9.91
2023-04-28T20:28:07.356Z,9.89
2023-04-28T20:30:37.628Z,9.87
2023-04-28T20:33:07.306Z,9.84
2023-04-28T20:35:38.516Z,9.81
2023-04-28T20:38:07.888Z,9.78
2023-04-28T20:40:38.627Z,9.77
2023-04-28T20:43:07.811Z,9.77
2023-04-28T20:45:36.377Z,9.73
2023-04-28T20:48:07.189Z,9.72
2023-04-28T20:50:39.502Z,9.70
2023-04-28T20:53:09.011Z,9.70
2023-04-28T20:55:39.112Z,9.69
2023-04-28T20:58:08.388Z,9.68
2023-04-28T21:00:39.164Z,9.67
2023-04-28T21:03:08.080Z,9.65
2023-04-28T21:05:37.001Z,9.61
2023-04-28T21:08:06.347Z,9.60
2023-04-28T21:10:35.935Z,9.58
2023-04-28T21:13:06.858Z,9.54
2023-04-28T21:15:38.020Z,9.53
2023-04-28T21:18:06.806Z,9.48
2023-04-28T21:20:35.765Z,9.45
2023-04-28T21:23:05.045Z,9.43
2023-04-28T21:25:34.152Z,9.42
2023-04-28T21:28:03.104Z,9.41
2023-04-28T21:30:32.407Z,9.39
2023-04-28T21:33:01.660Z,9.38
2023-04-28T21:35:30.752Z,9.33
2023-04-28T21:38:00.034Z,9.29
2023-04-28T21:40:29.172Z,9.25
2023-04-28T21:42:58.132Z,9.23
2023-04-28T21:45:28.166Z,9.20
2023-04-28T21:47:58.938Z,9.17
2023-04-28T21:50:27.967Z,9.15
2023-04-28T21:52:59.022Z,9.14
2023-04-28T21:55:28.329Z,9.12
2023-04-28T21:58:00.129Z,9.12
2023-04-28T22:00:30.319Z,9.12
2023-04-28T22:03:03.127Z,9.10
2023-04-28T22:05:33.853Z,9.07
2023-04-28T22:08:03.868Z,9.05
2023-04-28T22:10:34.190Z,9.03
2023-04-28T22:13:03.571Z,8.99
2023-04-28T22:15:33.093Z,8.92
2023-04-28T22:18:02.674Z,8.90
2023-04-28T22:20:32.508Z,8.87
2023-04-28T22:23:01.206Z,8.82
2023-04-28T22:25:32.139Z,8.82
2023-04-28T22:28:01.244Z,8.80
2023-04-28T22:30:33.621Z,8.78
2023-04-28T22:33:03.919Z,8.76
2023-04-28T22:35:33.707Z,8.75
2023-04-28T22:38:02.820Z,8.72
2023-04-28T22:40:32.468Z,8.70
2023-04-28T22:43:01.525Z,8.69
2023-04-28T22:45:30.857Z,8.69
2023-04-28T22:48:01.122Z,8.68
2023-04-28T22:50:31.281Z,8.67
2023-04-28T22:53:01.196Z,8.66
2023-04-28T22:55:30.734Z,8.64
2023-04-28T22:58:01.153Z,8.57
2023-04-28T23:00:30.751Z,8.52
2023-04-28T23:02:59.636Z,8.50
2023-04-28T23:05:28.552Z,8.46
2023-04-28T23:07:57.335Z,8.45
2023-04-28T23:10:26.699Z,8.42
2023-04-28T23:12:55.400Z,8.37
2023-04-28T23:15:24.830Z,8.35
2023-04-28T23:17:53.876Z,8.35
2023-04-28T23:20:22.627Z,8.36
2023-04-28T23:22:52.444Z,8.37
2023-04-28T23:25:22.524Z,8.33
2023-04-28T23:27:51.424Z,8.28
2023-04-28T23:30:20.750Z,8.25
2023-04-28T23:32:50.216Z,8.23
2023-04-28T23:35:19.287Z,8.22
2023-04-28T23:37:49.124Z,8.23
2023-04-28T23:40:18.623Z,8.21
2023-04-28T23:42:48.104Z,8.18
2023-04-28T23:45:17.714Z,8.14
2023-04-28T23:47:47.466Z,8.13
2023-04-28T23:50:17.825Z,8.11
2023-04-28T23:52:46.819Z,8.08
2023-04-28T23:55:15.731Z,8.07
2023-04-28T23:57:46.107Z,8.05
